sensor_id;sensor_type;location;lat;lon;timestamp;P1;durP1;ratioP1;P2;durP2;ratioP2
71080;SDS011;58740;50.672;18.690;2023-06-19T00:01:15;16.00;;;11.00;;
71080;SDS011;58740;50.672;18.690;2023-06-19T00:03:42;15.10;;;11.40;;
71080;SDS011;58740;50.672;18.690;2023-06-19T00:06:10;16.50;;;11.80;;
71080;SDS011;58740;50.672;18.690;2023-06-19T00:08:40;16.90;;;12.00;;
71080;SDS011;58740;50.672;18.690;2023-06-19T00:11:10;17.50;;;11.80;;
71080;SDS011;58740;50.672;18.690;2023-06-19T00:13:38;16.50;;;11.50;;
71080;SDS011;58740;50.672;18.690;2023-06-19T00:16:07;16.00;;;11.80;;
71080;SDS011;58740;50.672;18.690;2023-06-19T00:18:35;16.50;;;12.50;;
71080;SDS011;58740;50.672;18.690;2023-06-19T00:21:08;19.20;;;12.50;;
71080;SDS011;58740;50.672;18.690;2023-06-19T00:23:36;17.50;;;11.50;;
71080;SDS011;58740;50.672;18.690;2023-06-19T00:26:04;17.60;;;12.10;;
71080;SDS011;58740;50.672;18.690;2023-06-19T00:28:31;17.40;;;11.90;;
71080;SDS011;58740;50.672;18.690;2023-06-19T00:30:59;15.40;;;11.40;;
71080;SDS011;58740;50.672;18.690;2023-06-19T00:33:27;16.30;;;11.90;;
71080;SDS011;58740;50.672;18.690;2023-06-19T00:35:56;15.70;;;11.30;;
71080;SDS011;58740;50.672;18.690;2023-06-19T00:38:24;16.00;;;11.60;;
71080;SDS011;58740;50.672;18.690;2023-06-19T00:40:52;15.50;;;11.80;;
71080;SDS011;58740;50.672;18.690;2023-06-19T00:43:20;15.50;;;11.50;;
71080;SDS011;58740;50.672;18.690;2023-06-19T00:45:47;18.50;;;12.30;;
71080;SDS011;58740;50.672;18.690;2023-06-19T00:48:15;14.10;;;10.50;;
71080;SDS011;58740;50.672;18.690;2023-06-19T00:50:43;16.20;;;11.90;;
71080;SDS011;58740;50.672;18.690;2023-06-19T00:53:11;15.90;;;10.90;;
71080;SDS011;58740;50.672;18.690;2023-06-19T00:55:39;20.00;;;12.40;;
71080;SDS011;58740;50.672;18.690;2023-06-19T00:58:07;16.20;;;11.10;;
71080;SDS011;58740;50.672;18.690;2023-06-19T01:00:35;18.10;;;11.90;;
71080;SDS011;58740;50.672;18.690;2023-06-19T01:03:03;16.50;;;11.10;;
71080;SDS011;58740;50.672;18.690;2023-06-19T01:05:31;14.50;;;10.40;;
71080;SDS011;58740;50.672;18.690;2023-06-19T01:11:37;14.90;;;11.50;;
71080;SDS011;58740;50.672;18.690;2023-06-19T01:14:18;16.20;;;10.90;;
71080;SDS011;58740;50.672;18.690;2023-06-19T01:16:52;16.10;;;11.70;;
71080;SDS011;58740;50.672;18.690;2023-06-19T01:19:22;18.70;;;11.40;;
71080;SDS011;58740;50.672;18.690;2023-06-19T01:21:50;16.80;;;12.20;;
71080;SDS011;58740;50.672;18.690;2023-06-19T01:24:17;21.50;;;12.20;;
71080;SDS011;58740;50.672;18.690;2023-06-19T01:26:45;18.70;;;12.00;;
71080;SDS011;58740;50.672;18.690;2023-06-19T01:29:14;17.80;;;11.80;;
71080;SDS011;58740;50.672;18.690;2023-06-19T01:32:03;16.10;;;12.30;;
71080;SDS011;58740;50.672;18.690;2023-06-19T01:34:36;16.20;;;11.70;;
71080;SDS011;58740;50.672;18.690;2023-06-19T01:37:09;15.80;;;11.30;;
71080;SDS011;58740;50.672;18.690;2023-06-19T01:39:39;18.10;;;11.70;;
71080;SDS011;58740;50.672;18.690;2023-06-19T01:42:09;16.70;;;10.80;;
71080;SDS011;58740;50.672;18.690;2023-06-19T01:44:39;17.80;;;11.40;;
71080;SDS011;58740;50.672;18.690;2023-06-19T01:47:08;18.40;;;11.30;;
71080;SDS011;58740;50.672;18.690;2023-06-19T01:49:38;15.10;;;10.50;;
71080;SDS011;58740;50.672;18.690;2023-06-19T01:52:06;14.50;;;10.50;;
71080;SDS011;58740;50.672;18.690;2023-06-19T01:54:34;16.10;;;10.10;;
71080;SDS011;58740;50.672;18.690;2023-06-19T01:57:02;17.20;;;12.10;;
71080;SDS011;58740;50.672;18.690;2023-06-19T01:59:30;16.30;;;11.20;;
71080;SDS011;58740;50.672;18.690;2023-06-19T02:01:57;15.30;;;10.70;;
71080;SDS011;58740;50.672;18.690;2023-06-19T02:04:25;15.40;;;10.80;;
71080;SDS011;58740;50.672;18.690;2023-06-19T02:06:53;18.00;;;11.20;;
71080;SDS011;58740;50.672;18.690;2023-06-19T02:09:20;14.90;;;10.60;;
71080;SDS011;58740;50.672;18.690;2023-06-19T02:11:48;13.70;;;9.50;;
71080;SDS011;58740;50.672;18.690;2023-06-19T02:14:16;17.30;;;11.10;;
71080;SDS011;58740;50.672;18.690;2023-06-19T02:16:44;16.00;;;11.00;;
71080;SDS011;58740;50.672;18.690;2023-06-19T02:19:12;18.80;;;11.40;;
71080;SDS011;58740;50.672;18.690;2023-06-19T02:21:40;15.50;;;10.70;;
71080;SDS011;58740;50.672;18.690;2023-06-19T02:24:08;16.10;;;10.90;;
71080;SDS011;58740;50.672;18.690;2023-06-19T02:26:36;16.00;;;9.70;;
71080;SDS011;58740;50.672;18.690;2023-06-19T02:29:03;18.30;;;10.50;;
71080;SDS011;58740;50.672;18.690;2023-06-19T02:31:31;16.10;;;10.70;;
71080;SDS011;58740;50.672;18.690;2023-06-19T02:33:59;16.70;;;11.30;;
71080;SDS011;58740;50.672;18.690;2023-06-19T02:36:26;17.90;;;10.90;;
71080;SDS011;58740;50.672;18.690;2023-06-19T02:38:54;15.60;;;10.20;;
71080;SDS011;58740;50.672;18.690;2023-06-19T02:41:22;17.30;;;11.00;;
71080;SDS011;58740;50.672;18.690;2023-06-19T02:43:49;19.50;;;10.90;;
71080;SDS011;58740;50.672;18.690;2023-06-19T02:46:18;16.60;;;11.40;;
71080;SDS011;58740;50.672;18.690;2023-06-19T02:48:45;17.90;;;11.60;;
71080;SDS011;58740;50.672;18.690;2023-06-19T02:51:13;16.00;;;11.10;;
71080;SDS011;58740;50.672;18.690;2023-06-19T02:53:41;18.30;;;11.30;;
71080;SDS011;58740;50.672;18.690;2023-06-19T02:56:11;19.80;;;11.70;;
71080;SDS011;58740;50.672;18.690;2023-06-19T02:58:40;18.40;;;10.90;;
71080;SDS011;58740;50.672;18.690;2023-06-19T03:01:07;16.40;;;10.80;;
71080;SDS011;58740;50.672;18.690;2023-06-19T03:03:36;15.40;;;10.50;;
71080;SDS011;58740;50.672;18.690;2023-06-19T03:06:06;19.20;;;11.20;;
71080;SDS011;58740;50.672;18.690;2023-06-19T03:08:35;19.20;;;10.90;;
71080;SDS011;58740;50.672;18.690;2023-06-19T03:11:05;15.80;;;11.80;;
71080;SDS011;58740;50.672;18.690;2023-06-19T03:13:53;19.90;;;11.60;;
71080;SDS011;58740;50.672;18.690;2023-06-19T03:16:22;15.60;;;10.70;;
71080;SDS011;58740;50.672;18.690;2023-06-19T03:18:49;17.50;;;10.50;;
71080;SDS011;58740;50.672;18.690;2023-06-19T03:21:19;17.60;;;10.90;;
71080;SDS011;58740;50.672;18.690;2023-06-19T03:23:47;19.70;;;12.40;;
71080;SDS011;58740;50.672;18.690;2023-06-19T03:26:15;19.90;;;12.00;;
71080;SDS011;58740;50.672;18.690;2023-06-19T03:28:43;21.50;;;12.50;;
71080;SDS011;58740;50.672;18.690;2023-06-19T03:31:10;19.80;;;12.20;;
71080;SDS011;58740;50.672;18.690;2023-06-19T03:33:38;20.90;;;12.10;;
71080;SDS011;58740;50.672;18.690;2023-06-19T03:36:06;18.90;;;11.60;;
71080;SDS011;58740;50.672;18.690;2023-06-19T03:38:35;19.20;;;11.70;;
71080;SDS011;58740;50.672;18.690;2023-06-19T03:41:02;19.70;;;11.40;;
71080;SDS011;58740;50.672;18.690;2023-06-19T03:43:30;18.10;;;11.90;;
71080;SDS011;58740;50.672;18.690;2023-06-19T03:45:58;18.70;;;12.00;;
71080;SDS011;58740;50.672;18.690;2023-06-19T03:48:26;20.80;;;11.90;;
71080;SDS011;58740;50.672;18.690;2023-06-19T03:50:54;23.30;;;13.00;;
71080;SDS011;58740;50.672;18.690;2023-06-19T03:53:22;24.70;;;12.50;;
71080;SDS011;58740;50.672;18.690;2023-06-19T03:55:50;20.40;;;13.20;;
71080;SDS011;58740;50.672;18.690;2023-06-19T03:58:20;19.40;;;12.00;;
71080;SDS011;58740;50.672;18.690;2023-06-19T04:00:48;24.40;;;12.30;;
71080;SDS011;58740;50.672;18.690;2023-06-19T04:03:15;21.60;;;11.80;;
71080;SDS011;58740;50.672;18.690;2023-06-19T04:05:43;26.60;;;13.10;;
71080;SDS011;58740;50.672;18.690;2023-06-19T04:08:11;21.10;;;12.10;;
71080;SDS011;58740;50.672;18.690;2023-06-19T04:10:39;21.90;;;13.00;;
71080;SDS011;58740;50.672;18.690;2023-06-19T04:13:07;23.30;;;13.90;;
71080;SDS011;58740;50.672;18.690;2023-06-19T04:15:35;23.40;;;12.30;;
71080;SDS011;58740;50.672;18.690;2023-06-19T04:18:04;19.20;;;12.90;;
71080;SDS011;58740;50.672;18.690;2023-06-19T04:20:32;22.00;;;12.20;;
71080;SDS011;58740;50.672;18.690;2023-06-19T04:23:01;24.30;;;12.90;;
71080;SDS011;58740;50.672;18.690;2023-06-19T04:25:29;22.90;;;12.70;;
71080;SDS011;58740;50.672;18.690;2023-06-19T04:27:57;22.80;;;13.30;;
71080;SDS011;58740;50.672;18.690;2023-06-19T04:30:25;22.40;;;13.10;;
71080;SDS011;58740;50.672;18.690;2023-06-19T04:32:53;24.20;;;13.80;;
71080;SDS011;58740;50.672;18.690;2023-06-19T04:35:21;21.90;;;12.30;;
71080;SDS011;58740;50.672;18.690;2023-06-19T04:37:51;19.60;;;12.40;;
71080;SDS011;58740;50.672;18.690;2023-06-19T04:40:20;21.90;;;13.50;;
71080;SDS011;58740;50.672;18.690;2023-06-19T04:42:48;22.50;;;13.80;;
71080;SDS011;58740;50.672;18.690;2023-06-19T04:45:16;23.90;;;13.40;;
71080;SDS011;58740;50.672;18.690;2023-06-19T04:47:44;24.00;;;13.90;;
71080;SDS011;58740;50.672;18.690;2023-06-19T04:50:21;26.20;;;14.30;;
71080;SDS011;58740;50.672;18.690;2023-06-19T04:52:49;22.60;;;13.20;;
71080;SDS011;58740;50.672;18.690;2023-06-19T04:55:19;22.70;;;13.70;;
71080;SDS011;58740;50.672;18.690;2023-06-19T04:57:47;27.10;;;14.80;;
71080;SDS011;58740;50.672;18.690;2023-06-19T05:00:15;25.50;;;15.80;;
71080;SDS011;58740;50.672;18.690;2023-06-19T05:02:47;23.60;;;15.60;;
71080;SDS011;58740;50.672;18.690;2023-06-19T05:05:16;25.80;;;16.00;;
71080;SDS011;58740;50.672;18.690;2023-06-19T05:07:46;25.70;;;14.30;;
71080;SDS011;58740;50.672;18.690;2023-06-19T05:10:14;20.90;;;12.90;;
71080;SDS011;58740;50.672;18.690;2023-06-19T05:12:43;19.00;;;13.00;;
71080;SDS011;58740;50.672;18.690;2023-06-19T05:15:11;21.50;;;14.10;;
71080;SDS011;58740;50.672;18.690;2023-06-19T05:17:38;20.70;;;14.10;;
71080;SDS011;58740;50.672;18.690;2023-06-19T05:20:07;22.30;;;14.50;;
71080;SDS011;58740;50.672;18.690;2023-06-19T05:22:35;20.30;;;13.50;;
71080;SDS011;58740;50.672;18.690;2023-06-19T05:25:05;19.80;;;13.40;;
71080;SDS011;58740;50.672;18.690;2023-06-19T05:27:33;20.10;;;13.90;;
71080;SDS011;58740;50.672;18.690;2023-06-19T05:30:01;17.70;;;13.20;;
71080;SDS011;58740;50.672;18.690;2023-06-19T05:32:29;21.50;;;13.10;;
71080;SDS011;58740;50.672;18.690;2023-06-19T05:34:57;19.00;;;13.20;;
71080;SDS011;58740;50.672;18.690;2023-06-19T05:37:25;18.20;;;11.90;;
71080;SDS011;58740;50.672;18.690;2023-06-19T05:39:54;22.80;;;13.60;;
71080;SDS011;58740;50.672;18.690;2023-06-19T05:42:22;19.00;;;12.80;;
71080;SDS011;58740;50.672;18.690;2023-06-19T05:44:50;19.00;;;12.40;;
71080;SDS011;58740;50.672;18.690;2023-06-19T05:47:18;18.40;;;11.90;;
71080;SDS011;58740;50.672;18.690;2023-06-19T05:49:48;19.10;;;11.70;;
71080;SDS011;58740;50.672;18.690;2023-06-19T05:52:16;18.50;;;12.00;;
71080;SDS011;58740;50.672;18.690;2023-06-19T05:54:44;18.30;;;12.40;;
71080;SDS011;58740;50.672;18.690;2023-06-19T05:57:12;18.20;;;12.30;;
71080;SDS011;58740;50.672;18.690;2023-06-19T05:59:43;16.20;;;12.00;;
71080;SDS011;58740;50.672;18.690;2023-06-19T06:02:11;15.80;;;11.20;;
71080;SDS011;58740;50.672;18.690;2023-06-19T06:04:39;18.00;;;11.40;;
71080;SDS011;58740;50.672;18.690;2023-06-19T06:07:07;15.90;;;10.50;;
71080;SDS011;58740;50.672;18.690;2023-06-19T06:09:35;14.10;;;10.70;;
71080;SDS011;58740;50.672;18.690;2023-06-19T06:12:04;16.50;;;10.70;;
71080;SDS011;58740;50.672;18.690;2023-06-19T06:14:32;13.80;;;9.70;;
71080;SDS011;58740;50.672;18.690;2023-06-19T06:17:00;14.40;;;10.00;;
71080;SDS011;58740;50.672;18.690;2023-06-19T06:19:28;15.20;;;9.80;;
71080;SDS011;58740;50.672;18.690;2023-06-19T06:21:59;14.40;;;9.40;;
71080;SDS011;58740;50.672;18.690;2023-06-19T06:24:27;13.20;;;9.40;;
71080;SDS011;58740;50.672;18.690;2023-06-19T06:26:55;13.40;;;8.80;;
71080;SDS011;58740;50.672;18.690;2023-06-19T06:29:23;13.40;;;9.30;;
71080;SDS011;58740;50.672;18.690;2023-06-19T06:31:51;14.40;;;9.70;;
71080;SDS011;58740;50.672;18.690;2023-06-19T06:34:22;13.40;;;8.50;;
71080;SDS011;58740;50.672;18.690;2023-06-19T06:36:50;12.20;;;8.50;;
71080;SDS011;58740;50.672;18.690;2023-06-19T06:39:33;12.80;;;8.20;;
71080;SDS011;58740;50.672;18.690;2023-06-19T06:42:01;11.80;;;8.10;;
71080;SDS011;58740;50.672;18.690;2023-06-19T06:44:30;11.40;;;8.70;;
71080;SDS011;58740;50.672;18.690;2023-06-19T06:46:58;12.40;;;7.90;;
71080;SDS011;58740;50.672;18.690;2023-06-19T06:49:25;12.20;;;8.40;;
71080;SDS011;58740;50.672;18.690;2023-06-19T06:51:53;13.90;;;9.10;;
71080;SDS011;58740;50.672;18.690;2023-06-19T06:54:24;11.30;;;7.80;;
71080;SDS011;58740;50.672;18.690;2023-06-19T06:56:52;9.10;;;6.90;;
71080;SDS011;58740;50.672;18.690;2023-06-19T06:59:24;10.70;;;7.20;;
71080;SDS011;58740;50.672;18.690;2023-06-19T07:01:54;9.90;;;7.10;;
71080;SDS011;58740;50.672;18.690;2023-06-19T07:04:22;14.70;;;7.40;;
71080;SDS011;58740;50.672;18.690;2023-06-19T07:06:50;13.30;;;7.80;;
71080;SDS011;58740;50.672;18.690;2023-06-19T07:09:18;10.50;;;7.40;;
71080;SDS011;58740;50.672;18.690;2023-06-19T07:11:46;9.30;;;6.30;;
71080;SDS011;58740;50.672;18.690;2023-06-19T07:14:14;9.20;;;6.50;;
71080;SDS011;58740;50.672;18.690;2023-06-19T07:16:46;9.80;;;6.80;;
71080;SDS011;58740;50.672;18.690;2023-06-19T07:19:14;9.70;;;6.70;;
71080;SDS011;58740;50.672;18.690;2023-06-19T07:21:43;9.00;;;6.30;;
71080;SDS011;58740;50.672;18.690;2023-06-19T07:24:11;9.50;;;6.30;;
71080;SDS011;58740;50.672;18.690;2023-06-19T07:26:39;9.50;;;6.40;;
71080;SDS011;58740;50.672;18.690;2023-06-19T07:29:07;7.50;;;5.60;;
71080;SDS011;58740;50.672;18.690;2023-06-19T07:31:34;9.10;;;6.10;;
71080;SDS011;58740;50.672;18.690;2023-06-19T07:34:02;7.90;;;5.50;;
71080;SDS011;58740;50.672;18.690;2023-06-19T07:36:30;7.70;;;5.20;;
71080;SDS011;58740;50.672;18.690;2023-06-19T07:38:58;7.80;;;5.50;;
71080;SDS011;58740;50.672;18.690;2023-06-19T07:41:25;8.30;;;5.60;;
71080;SDS011;58740;50.672;18.690;2023-06-19T07:43:53;8.70;;;5.70;;
71080;SDS011;58740;50.672;18.690;2023-06-19T07:46:21;9.20;;;6.20;;
71080;SDS011;58740;50.672;18.690;2023-06-19T07:48:49;7.10;;;5.30;;
71080;SDS011;58740;50.672;18.690;2023-06-19T07:51:16;7.90;;;5.40;;
71080;SDS011;58740;50.672;18.690;2023-06-19T07:53:44;8.00;;;5.70;;
71080;SDS011;58740;50.672;18.690;2023-06-19T07:56:12;8.50;;;6.00;;
71080;SDS011;58740;50.672;18.690;2023-06-19T07:58:40;8.90;;;6.60;;
71080;SDS011;58740;50.672;18.690;2023-06-19T08:01:08;8.00;;;6.10;;
71080;SDS011;58740;50.672;18.690;2023-06-19T08:03:37;8.60;;;5.60;;
71080;SDS011;58740;50.672;18.690;2023-06-19T08:06:05;8.40;;;6.70;;
71080;SDS011;58740;50.672;18.690;2023-06-19T08:08:33;7.90;;;5.70;;
71080;SDS011;58740;50.672;18.690;2023-06-19T08:11:18;7.60;;;4.90;;
71080;SDS011;58740;50.672;18.690;2023-06-19T08:13:46;7.90;;;5.40;;
71080;SDS011;58740;50.672;18.690;2023-06-19T08:16:14;8.50;;;5.30;;
71080;SDS011;58740;50.672;18.690;2023-06-19T08:18:43;7.80;;;5.60;;
71080;SDS011;58740;50.672;18.690;2023-06-19T08:21:12;7.70;;;5.20;;
71080;SDS011;58740;50.672;18.690;2023-06-19T08:23:40;7.70;;;5.20;;
71080;SDS011;58740;50.672;18.690;2023-06-19T08:26:11;6.60;;;4.80;;
71080;SDS011;58740;50.672;18.690;2023-06-19T08:28:39;7.30;;;5.20;;
71080;SDS011;58740;50.672;18.690;2023-06-19T08:31:09;7.80;;;4.70;;
71080;SDS011;58740;50.672;18.690;2023-06-19T08:33:37;7.10;;;5.30;;
71080;SDS011;58740;50.672;18.690;2023-06-19T08:36:04;7.10;;;4.90;;
71080;SDS011;58740;50.672;18.690;2023-06-19T08:38:32;7.30;;;4.90;;
71080;SDS011;58740;50.672;18.690;2023-06-19T08:41:00;11.00;;;5.60;;
71080;SDS011;58740;50.672;18.690;2023-06-19T08:43:28;7.00;;;4.90;;
71080;SDS011;58740;50.672;18.690;2023-06-19T08:46:09;6.80;;;4.90;;
71080;SDS011;58740;50.672;18.690;2023-06-19T08:48:38;8.20;;;5.00;;
71080;SDS011;58740;50.672;18.690;2023-06-19T08:51:06;7.50;;;5.20;;
71080;SDS011;58740;50.672;18.690;2023-06-19T08:53:43;7.50;;;5.50;;
71080;SDS011;58740;50.672;18.690;2023-06-19T08:56:15;7.30;;;4.80;;
71080;SDS011;58740;50.672;18.690;2023-06-19T08:58:43;6.90;;;5.30;;
71080;SDS011;58740;50.672;18.690;2023-06-19T09:01:11;7.60;;;4.50;;
71080;SDS011;58740;50.672;18.690;2023-06-19T09:03:40;6.70;;;4.40;;
71080;SDS011;58740;50.672;18.690;2023-06-19T09:06:08;7.30;;;4.70;;
71080;SDS011;58740;50.672;18.690;2023-06-19T09:08:36;6.70;;;4.70;;
71080;SDS011;58740;50.672;18.690;2023-06-19T09:11:05;6.40;;;4.70;;
71080;SDS011;58740;50.672;18.690;2023-06-19T09:13:36;6.80;;;4.80;;
71080;SDS011;58740;50.672;18.690;2023-06-19T09:16:08;7.00;;;4.60;;
71080;SDS011;58740;50.672;18.690;2023-06-19T09:18:44;7.00;;;4.90;;
71080;SDS011;58740;50.672;18.690;2023-06-19T09:21:21;6.70;;;5.00;;
71080;SDS011;58740;50.672;18.690;2023-06-19T09:23:52;7.60;;;5.40;;
71080;SDS011;58740;50.672;18.690;2023-06-19T09:26:20;7.50;;;5.30;;
71080;SDS011;58740;50.672;18.690;2023-06-19T09:28:48;7.10;;;5.60;;
71080;SDS011;58740;50.672;18.690;2023-06-19T09:31:17;8.60;;;5.50;;
71080;SDS011;58740;50.672;18.690;2023-06-19T09:33:45;7.60;;;5.20;;
71080;SDS011;58740;50.672;18.690;2023-06-19T09:36:14;8.60;;;5.60;;
71080;SDS011;58740;50.672;18.690;2023-06-19T09:38:42;7.20;;;5.30;;
71080;SDS011;58740;50.672;18.690;2023-06-19T09:41:10;6.60;;;5.20;;
71080;SDS011;58740;50.672;18.690;2023-06-19T09:43:42;9.40;;;5.90;;
71080;SDS011;58740;50.672;18.690;2023-06-19T09:46:11;7.50;;;5.40;;
71080;SDS011;58740;50.672;18.690;2023-06-19T09:48:43;9.00;;;5.60;;
71080;SDS011;58740;50.672;18.690;2023-06-19T09:51:23;8.30;;;5.20;;
71080;SDS011;58740;50.672;18.690;2023-06-19T09:53:58;7.70;;;5.70;;
71080;SDS011;58740;50.672;18.690;2023-06-19T09:56:29;7.90;;;5.30;;
71080;SDS011;58740;50.672;18.690;2023-06-19T09:58:59;7.40;;;5.70;;
71080;SDS011;58740;50.672;18.690;2023-06-19T10:01:29;7.10;;;5.60;;
71080;SDS011;58740;50.672;18.690;2023-06-19T10:04:04;8.10;;;5.70;;
71080;SDS011;58740;50.672;18.690;2023-06-19T10:06:43;7.70;;;6.10;;
71080;SDS011;58740;50.672;18.690;2023-06-19T10:09:14;10.20;;;5.80;;
71080;SDS011;58740;50.672;18.690;2023-06-19T10:11:46;8.30;;;5.40;;
71080;SDS011;58740;50.672;18.690;2023-06-19T10:14:21;8.30;;;6.50;;
71080;SDS011;58740;50.672;18.690;2023-06-19T10:16:49;8.30;;;5.80;;
71080;SDS011;58740;50.672;18.690;2023-06-19T10:19:20;8.90;;;6.00;;
71080;SDS011;58740;50.672;18.690;2023-06-19T10:21:53;10.20;;;6.00;;
71080;SDS011;58740;50.672;18.690;2023-06-19T10:24:23;8.20;;;5.50;;
71080;SDS011;58740;50.672;18.690;2023-06-19T10:26:57;7.90;;;5.70;;
71080;SDS011;58740;50.672;18.690;2023-06-19T10:29:38;7.70;;;5.40;;
71080;SDS011;58740;50.672;18.690;2023-06-19T10:32:12;8.70;;;4.90;;
71080;SDS011;58740;50.672;18.690;2023-06-19T10:34:45;8.80;;;5.70;;
71080;SDS011;58740;50.672;18.690;2023-06-19T10:37:15;7.30;;;4.80;;
71080;SDS011;58740;50.672;18.690;2023-06-19T10:39:43;8.30;;;5.80;;
71080;SDS011;58740;50.672;18.690;2023-06-19T10:42:11;9.60;;;6.30;;
71080;SDS011;58740;50.672;18.690;2023-06-19T10:44:39;7.80;;;5.70;;
71080;SDS011;58740;50.672;18.690;2023-06-19T10:47:09;7.00;;;5.00;;
71080;SDS011;58740;50.672;18.690;2023-06-19T10:49:37;7.50;;;5.60;;
71080;SDS011;58740;50.672;18.690;2023-06-19T10:52:07;7.20;;;5.90;;
71080;SDS011;58740;50.672;18.690;2023-06-19T10:54:35;7.20;;;5.60;;
71080;SDS011;58740;50.672;18.690;2023-06-19T10:57:06;8.50;;;5.80;;
71080;SDS011;58740;50.672;18.690;2023-06-19T10:59:34;8.10;;;5.50;;
71080;SDS011;58740;50.672;18.690;2023-06-19T11:02:02;7.70;;;5.20;;
71080;SDS011;58740;50.672;18.690;2023-06-19T11:04:30;7.80;;;5.60;;
71080;SDS011;58740;50.672;18.690;2023-06-19T11:07:04;9.90;;;5.80;;
71080;SDS011;58740;50.672;18.690;2023-06-19T11:09:33;7.40;;;5.70;;
71080;SDS011;58740;50.672;18.690;2023-06-19T11:12:01;8.10;;;5.90;;
71080;SDS011;58740;50.672;18.690;2023-06-19T11:14:29;7.50;;;5.80;;
71080;SDS011;58740;50.672;18.690;2023-06-19T11:16:57;8.10;;;6.10;;
71080;SDS011;58740;50.672;18.690;2023-06-19T11:19:30;7.40;;;5.60;;
71080;SDS011;58740;50.672;18.690;2023-06-19T11:21:58;6.50;;;5.30;;
71080;SDS011;58740;50.672;18.690;2023-06-19T11:24:28;8.40;;;5.80;;
71080;SDS011;58740;50.672;18.690;2023-06-19T11:26:57;7.40;;;5.70;;
71080;SDS011;58740;50.672;18.690;2023-06-19T11:29:29;8.50;;;6.00;;
71080;SDS011;58740;50.672;18.690;2023-06-19T11:32:24;8.10;;;5.50;;
71080;SDS011;58740;50.672;18.690;2023-06-19T11:35:04;9.00;;;5.60;;
71080;SDS011;58740;50.672;18.690;2023-06-19T11:37:35;8.50;;;5.50;;
71080;SDS011;58740;50.672;18.690;2023-06-19T11:40:03;8.30;;;6.30;;
71080;SDS011;58740;50.672;18.690;2023-06-19T11:42:46;8.00;;;6.30;;
71080;SDS011;58740;50.672;18.690;2023-06-19T11:45:15;8.10;;;5.80;;
71080;SDS011;58740;50.672;18.690;2023-06-19T11:47:48;8.50;;;5.70;;
71080;SDS011;58740;50.672;18.690;2023-06-19T11:50:17;8.30;;;6.30;;
71080;SDS011;58740;50.672;18.690;2023-06-19T11:52:46;7.30;;;5.70;;
71080;SDS011;58740;50.672;18.690;2023-06-19T11:55:14;8.30;;;6.00;;
71080;SDS011;58740;50.672;18.690;2023-06-19T11:57:43;7.30;;;5.90;;
71080;SDS011;58740;50.672;18.690;2023-06-19T12:00:16;8.70;;;6.10;;
71080;SDS011;58740;50.672;18.690;2023-06-19T12:02:45;8.20;;;6.20;;
71080;SDS011;58740;50.672;18.690;2023-06-19T12:05:15;8.60;;;6.10;;
71080;SDS011;58740;50.672;18.690;2023-06-19T12:07:43;8.80;;;6.50;;
71080;SDS011;58740;50.672;18.690;2023-06-19T12:10:11;9.30;;;6.40;;
71080;SDS011;58740;50.672;18.690;2023-06-19T12:12:39;9.30;;;6.00;;
71080;SDS011;58740;50.672;18.690;2023-06-19T12:15:07;7.70;;;5.70;;
71080;SDS011;58740;50.672;18.690;2023-06-19T12:17:35;7.60;;;5.80;;
71080;SDS011;58740;50.672;18.690;2023-06-19T12:20:04;8.10;;;6.40;;
71080;SDS011;58740;50.672;18.690;2023-06-19T12:22:36;8.90;;;5.80;;
71080;SDS011;58740;50.672;18.690;2023-06-19T12:25:04;8.90;;;6.70;;
71080;SDS011;58740;50.672;18.690;2023-06-19T12:27:31;8.50;;;6.60;;
71080;SDS011;58740;50.672;18.690;2023-06-19T12:30:01;8.50;;;6.60;;
71080;SDS011;58740;50.672;18.690;2023-06-19T12:32:28;8.20;;;5.70;;
71080;SDS011;58740;50.672;18.690;2023-06-19T12:34:56;7.70;;;6.10;;
71080;SDS011;58740;50.672;18.690;2023-06-19T12:37:24;8.00;;;5.80;;
71080;SDS011;58740;50.672;18.690;2023-06-19T12:39:52;8.70;;;6.50;;
71080;SDS011;58740;50.672;18.690;2023-06-19T12:42:20;8.60;;;6.40;;
71080;SDS011;58740;50.672;18.690;2023-06-19T12:44:48;7.60;;;6.00;;
71080;SDS011;58740;50.672;18.690;2023-06-19T12:47:16;8.70;;;5.90;;
71080;SDS011;58740;50.672;18.690;2023-06-19T12:49:46;9.00;;;6.80;;
71080;SDS011;58740;50.672;18.690;2023-06-19T12:52:13;8.30;;;6.20;;
71080;SDS011;58740;50.672;18.690;2023-06-19T12:54:41;8.00;;;6.30;;
71080;SDS011;58740;50.672;18.690;2023-06-19T12:57:10;8.80;;;6.40;;
71080;SDS011;58740;50.672;18.690;2023-06-19T12:59:38;7.80;;;6.20;;
71080;SDS011;58740;50.672;18.690;2023-06-19T13:02:06;8.10;;;6.40;;
71080;SDS011;58740;50.672;18.690;2023-06-19T13:04:34;8.80;;;6.30;;
71080;SDS011;58740;50.672;18.690;2023-06-19T13:07:02;9.40;;;6.20;;
71080;SDS011;58740;50.672;18.690;2023-06-19T13:09:30;8.60;;;5.90;;
71080;SDS011;58740;50.672;18.690;2023-06-19T13:11:58;7.10;;;5.40;;
71080;SDS011;58740;50.672;18.690;2023-06-19T13:14:26;7.40;;;5.90;;
71080;SDS011;58740;50.672;18.690;2023-06-19T13:16:54;9.10;;;6.90;;
71080;SDS011;58740;50.672;18.690;2023-06-19T13:19:27;10.10;;;6.30;;
71080;SDS011;58740;50.672;18.690;2023-06-19T13:21:55;8.20;;;5.80;;
71080;SDS011;58740;50.672;18.690;2023-06-19T13:24:22;7.90;;;6.00;;
71080;SDS011;58740;50.672;18.690;2023-06-19T13:26:50;6.50;;;5.20;;
71080;SDS011;58740;50.672;18.690;2023-06-19T13:29:18;8.30;;;5.40;;
71080;SDS011;58740;50.672;18.690;2023-06-19T13:31:46;8.30;;;5.90;;
71080;SDS011;58740;50.672;18.690;2023-06-19T13:34:14;7.10;;;4.90;;
71080;SDS011;58740;50.672;18.690;2023-06-19T13:36:42;8.00;;;5.50;;
71080;SDS011;58740;50.672;18.690;2023-06-19T13:39:10;7.00;;;5.40;;
71080;SDS011;58740;50.672;18.690;2023-06-19T13:41:39;7.50;;;5.50;;
71080;SDS011;58740;50.672;18.690;2023-06-19T13:44:07;7.40;;;4.70;;
71080;SDS011;58740;50.672;18.690;2023-06-19T13:46:34;6.70;;;4.50;;
71080;SDS011;58740;50.672;18.690;2023-06-19T13:49:02;7.50;;;5.20;;
71080;SDS011;58740;50.672;18.690;2023-06-19T13:51:30;7.30;;;4.90;;
71080;SDS011;58740;50.672;18.690;2023-06-19T13:54:01;7.70;;;4.60;;
71080;SDS011;58740;50.672;18.690;2023-06-19T13:56:31;6.80;;;4.30;;
71080;SDS011;58740;50.672;18.690;2023-06-19T13:59:00;8.40;;;4.50;;
71080;SDS011;58740;50.672;18.690;2023-06-19T14:01:28;6.90;;;4.60;;
71080;SDS011;58740;50.672;18.690;2023-06-19T14:03:56;8.80;;;5.00;;
71080;SDS011;58740;50.672;18.690;2023-06-19T14:06:25;9.30;;;5.30;;
71080;SDS011;58740;50.672;18.690;2023-06-19T14:08:54;6.30;;;4.70;;
71080;SDS011;58740;50.672;18.690;2023-06-19T14:11:24;7.70;;;5.20;;
71080;SDS011;58740;50.672;18.690;2023-06-19T14:13:52;6.80;;;5.10;;
71080;SDS011;58740;50.672;18.690;2023-06-19T14:16:19;7.70;;;4.80;;
71080;SDS011;58740;50.672;18.690;2023-06-19T14:18:47;8.90;;;4.80;;
71080;SDS011;58740;50.672;18.690;2023-06-19T14:21:15;6.90;;;4.50;;
71080;SDS011;58740;50.672;18.690;2023-06-19T14:23:43;9.00;;;4.80;;
71080;SDS011;58740;50.672;18.690;2023-06-19T14:26:12;7.00;;;4.80;;
71080;SDS011;58740;50.672;18.690;2023-06-19T14:28:45;6.10;;;4.40;;
71080;SDS011;58740;50.672;18.690;2023-06-19T14:31:13;6.00;;;4.20;;
71080;SDS011;58740;50.672;18.690;2023-06-19T14:33:41;6.90;;;4.00;;
71080;SDS011;58740;50.672;18.690;2023-06-19T14:36:09;7.10;;;4.50;;
71080;SDS011;58740;50.672;18.690;2023-06-19T14:38:37;9.00;;;5.20;;